EDDV Airport Information

Runway Information
Runway 09C Length 2559 ft width 74 ft
Elevation 178 ft Threshold 214 ft Heading 92
Runway 27C Length 2559 ft Width 74 ft
Elevation 174 ft Threshold 541 ft Heading 272
Runway 09L Length 12467 ft width 148 ft
Elevation 167 ft Threshold 984 ft Heading 93
Runway 27R Length 12467 ft Width 148 ft
Elevation 169 ft Threshold 984 ft Heading 273
Runway 09R Length 7677 ft width 148 ft
Elevation 172 ft Threshold 0 ft Heading 93
Runway 27L Length 7677 ft Width 148 ft
Elevation 179 ft Threshold 0 ft Heading 273
Airport Frequencies
Type APP Name DIRECTOR Frequency 119.6 MHZ
Type ATIS Name ATIS Frequency 132.125 MHZ
Type GND Name GND Frequency 121.95 MHZ
Type INFO Name BREMEN INF Frequency 119.825 MHZ
Type RDR Name BREMEN RAD Frequency 131.325 MHZ
Type TWR Name TWR Frequency 120.175 MHZ
Airport Navaids
Type NDB Name Hannover Frequency 320 KHZ
Type DME Name Hannover Frequency 113950 KHZ
Type NDB Name Hannover Frequency 332 KHZ
Type DME Name Hannover Frequency 116900 KHZ
Type NDB Name Hannover Frequency 358 KHZ
Airport Weather Information & NOTAM
ADDS - METARS form results

(0808 UTC 22 May 2018)
 
METAR text: EDDV 220750Z 08009KT CAVOK 19/08 Q1014 NOSIG
Conditions at: EDDV (HANNOVER , DE) observed 0750 UTC 22 May 2018
Temperature: 19.0°C (66°F)
Dewpoint: 8.0°C (46°F) [RH = 49%]
Pressure (altimeter): 29.94 inches Hg (1014.0 mb)
Winds: from the E (80 degrees) at 10 MPH (9 knots; 4.7 m/s)
Visibility: 6 or more miles (10+ km)
Ceiling: ceiling and visibility are OK
Clouds: unknown
Weather: no significant weather observed at this time

METAR text: EDDV 220720Z 09008KT CAVOK 18/08 Q1014 NOSIG
Conditions at: EDDV (HANNOVER , DE) observed 0720 UTC 22 May 2018
Temperature: 18.0°C (64°F)
Dewpoint: 8.0°C (46°F) [RH = 52%]
Pressure (altimeter): 29.94 inches Hg (1014.0 mb)
Winds: from the E (90 degrees) at 9 MPH (8 knots; 4.2 m/s)
Visibility: 6 or more miles (10+ km)
Ceiling: ceiling and visibility are OK
Clouds: unknown
Weather: no significant weather observed at this time